sensor_id;sensor_type;location;lat;lon;timestamp;P1;durP1;ratioP1;P2;durP2;ratioP2
51296;SDS011;37380;45.186;9.792;2023-05-07T00:00:45;43.97;;;39.42;;
51296;SDS011;37380;45.186;9.792;2023-05-07T00:03:12;45.85;;;41.08;;
51296;SDS011;37380;45.186;9.792;2023-05-07T00:05:40;47.50;;;42.67;;
51296;SDS011;37380;45.186;9.792;2023-05-07T00:08:08;46.42;;;41.72;;
51296;SDS011;37380;45.186;9.792;2023-05-07T00:10:41;45.95;;;41.17;;
51296;SDS011;37380;45.186;9.792;2023-05-07T00:13:42;45.60;;;41.03;;
51296;SDS011;37380;45.186;9.792;2023-05-07T00:16:43;58.00;;;45.13;;
51296;SDS011;37380;45.186;9.792;2023-05-07T00:19:44;48.25;;;43.28;;
51296;SDS011;37380;45.186;9.792;2023-05-07T00:22:45;63.28;;;44.08;;
51296;SDS011;37380;45.186;9.792;2023-05-07T00:25:40;51.58;;;42.97;;
51296;SDS011;37380;45.186;9.792;2023-05-07T00:28:06;49.58;;;44.35;;
51296;SDS011;37380;45.186;9.792;2023-05-07T00:30:33;45.90;;;41.35;;
51296;SDS011;37380;45.186;9.792;2023-05-07T00:33:00;47.28;;;42.55;;
51296;SDS011;37380;45.186;9.792;2023-05-07T00:35:28;48.38;;;43.35;;
51296;SDS011;37380;45.186;9.792;2023-05-07T00:38:02;48.88;;;43.55;;
51296;SDS011;37380;45.186;9.792;2023-05-07T00:40:57;48.70;;;43.47;;
51296;SDS011;37380;45.186;9.792;2023-05-07T00:43:24;52.30;;;46.97;;
51296;SDS011;37380;45.186;9.792;2023-05-07T00:45:51;47.35;;;42.78;;
51296;SDS011;37380;45.186;9.792;2023-05-07T00:48:18;51.80;;;46.13;;
51296;SDS011;37380;45.186;9.792;2023-05-07T00:50:45;50.88;;;45.28;;
51296;SDS011;37380;45.186;9.792;2023-05-07T00:53:13;48.40;;;43.47;;
51296;SDS011;37380;45.186;9.792;2023-05-07T00:55:40;50.10;;;45.05;;
51296;SDS011;37380;45.186;9.792;2023-05-07T00:58:08;49.08;;;43.67;;
51296;SDS011;37380;45.186;9.792;2023-05-07T01:00:35;55.45;;;47.15;;
51296;SDS011;37380;45.186;9.792;2023-05-07T01:03:09;52.67;;;47.15;;
51296;SDS011;37380;45.186;9.792;2023-05-07T01:06:03;51.17;;;44.72;;
51296;SDS011;37380;45.186;9.792;2023-05-07T01:08:32;51.55;;;46.10;;
51296;SDS011;37380;45.186;9.792;2023-05-07T01:10:59;51.30;;;45.92;;
51296;SDS011;37380;45.186;9.792;2023-05-07T01:13:27;51.95;;;46.53;;
51296;SDS011;37380;45.186;9.792;2023-05-07T01:16:02;51.88;;;46.35;;
51296;SDS011;37380;45.186;9.792;2023-05-07T01:19:03;48.25;;;43.22;;
51296;SDS011;37380;45.186;9.792;2023-05-07T01:22:07;52.55;;;47.10;;
51296;SDS011;37380;45.186;9.792;2023-05-07T01:25:03;58.10;;;48.92;;
51296;SDS011;37380;45.186;9.792;2023-05-07T01:27:31;50.97;;;45.95;;
51296;SDS011;37380;45.186;9.792;2023-05-07T01:30:00;49.97;;;43.72;;
51296;SDS011;37380;45.186;9.792;2023-05-07T01:32:33;59.72;;;46.58;;
51296;SDS011;37380;45.186;9.792;2023-05-07T01:35:05;54.15;;;45.45;;
51296;SDS011;37380;45.186;9.792;2023-05-07T01:37:40;52.85;;;44.67;;
51296;SDS011;37380;45.186;9.792;2023-05-07T01:40:35;47.38;;;41.03;;
51296;SDS011;37380;45.186;9.792;2023-05-07T01:43:02;52.58;;;42.42;;
51296;SDS011;37380;45.186;9.792;2023-05-07T01:45:31;48.58;;;43.50;;
51296;SDS011;37380;45.186;9.792;2023-05-07T01:48:01;51.20;;;44.17;;
51296;SDS011;37380;45.186;9.792;2023-05-07T01:50:29;46.92;;;42.08;;
51296;SDS011;37380;45.186;9.792;2023-05-07T01:52:58;47.28;;;42.78;;
51296;SDS011;37380;45.186;9.792;2023-05-07T01:55:25;52.25;;;46.60;;
51296;SDS011;37380;45.186;9.792;2023-05-07T01:57:52;50.72;;;45.20;;
51296;SDS011;37380;45.186;9.792;2023-05-07T02:00:19;47.05;;;42.25;;
51296;SDS011;37380;45.186;9.792;2023-05-07T02:02:46;50.72;;;45.13;;
51296;SDS011;37380;45.186;9.792;2023-05-07T02:05:34;51.38;;;46.13;;
51296;SDS011;37380;45.186;9.792;2023-05-07T02:08:11;48.92;;;43.17;;
51296;SDS011;37380;45.186;9.792;2023-05-07T02:10:38;58.45;;;46.10;;
51296;SDS011;37380;45.186;9.792;2023-05-07T02:13:06;48.72;;;43.95;;
51296;SDS011;37380;45.186;9.792;2023-05-07T02:15:39;49.72;;;44.33;;
51296;SDS011;37380;45.186;9.792;2023-05-07T02:18:43;49.88;;;44.90;;
51296;SDS011;37380;45.186;9.792;2023-05-07T02:21:31;52.40;;;46.67;;
51296;SDS011;37380;45.186;9.792;2023-05-07T02:23:58;58.25;;;47.25;;
51296;SDS011;37380;45.186;9.792;2023-05-07T02:26:25;53.30;;;47.88;;
51296;SDS011;37380;45.186;9.792;2023-05-07T02:28:52;60.05;;;48.58;;
51296;SDS011;37380;45.186;9.792;2023-05-07T02:31:20;58.05;;;51.75;;
51296;SDS011;37380;45.186;9.792;2023-05-07T02:33:47;56.78;;;51.08;;
51296;SDS011;37380;45.186;9.792;2023-05-07T02:36:14;55.08;;;49.20;;
51296;SDS011;37380;45.186;9.792;2023-05-07T02:39:11;56.97;;;50.90;;
51296;SDS011;37380;45.186;9.792;2023-05-07T02:42:05;54.20;;;48.92;;
51296;SDS011;37380;45.186;9.792;2023-05-07T02:45:04;56.20;;;49.70;;
51296;SDS011;37380;45.186;9.792;2023-05-07T02:47:31;52.95;;;47.42;;
51296;SDS011;37380;45.186;9.792;2023-05-07T02:50:00;56.40;;;49.47;;
51296;SDS011;37380;45.186;9.792;2023-05-07T02:52:28;57.22;;;51.35;;
51296;SDS011;37380;45.186;9.792;2023-05-07T02:54:55;54.35;;;48.53;;
51296;SDS011;37380;45.186;9.792;2023-05-07T02:57:22;56.85;;;47.60;;
51296;SDS011;37380;45.186;9.792;2023-05-07T02:59:49;53.08;;;47.75;;
51296;SDS011;37380;45.186;9.792;2023-05-07T03:02:20;54.35;;;47.72;;
51296;SDS011;37380;45.186;9.792;2023-05-07T03:04:47;53.65;;;47.88;;
51296;SDS011;37380;45.186;9.792;2023-05-07T03:07:14;53.67;;;47.38;;
51296;SDS011;37380;45.186;9.792;2023-05-07T03:09:41;57.95;;;51.97;;
51296;SDS011;37380;45.186;9.792;2023-05-07T03:12:08;57.83;;;50.60;;
51296;SDS011;37380;45.186;9.792;2023-05-07T03:14:41;56.80;;;51.10;;
51296;SDS011;37380;45.186;9.792;2023-05-07T03:17:36;53.80;;;47.80;;
51296;SDS011;37380;45.186;9.792;2023-05-07T03:20:10;56.30;;;49.25;;
51296;SDS011;37380;45.186;9.792;2023-05-07T03:23:04;58.70;;;50.22;;
51296;SDS011;37380;45.186;9.792;2023-05-07T03:25:34;55.17;;;49.58;;
51296;SDS011;37380;45.186;9.792;2023-05-07T03:28:01;53.88;;;48.78;;
51296;SDS011;37380;45.186;9.792;2023-05-07T03:30:37;57.33;;;51.08;;
51296;SDS011;37380;45.186;9.792;2023-05-07T03:33:04;54.35;;;48.83;;
51296;SDS011;37380;45.186;9.792;2023-05-07T03:35:31;54.13;;;48.65;;
51296;SDS011;37380;45.186;9.792;2023-05-07T03:38:05;53.55;;;48.03;;
51296;SDS011;37380;45.186;9.792;2023-05-07T03:41:00;57.47;;;46.58;;
51296;SDS011;37380;45.186;9.792;2023-05-07T03:43:27;62.08;;;50.65;;
51296;SDS011;37380;45.186;9.792;2023-05-07T03:46:03;54.22;;;48.78;;
51296;SDS011;37380;45.186;9.792;2023-05-07T03:48:36;53.75;;;47.35;;
51296;SDS011;37380;45.186;9.792;2023-05-07T03:51:37;49.50;;;44.20;;
51296;SDS011;37380;45.186;9.792;2023-05-07T03:54:32;55.97;;;46.72;;
51296;SDS011;37380;45.186;9.792;2023-05-07T03:56:59;45.92;;;41.33;;
51296;SDS011;37380;45.186;9.792;2023-05-07T03:59:26;39.92;;;35.47;;
51296;SDS011;37380;45.186;9.792;2023-05-07T04:01:54;43.13;;;38.75;;
51296;SDS011;37380;45.186;9.792;2023-05-07T04:04:24;45.58;;;32.45;;
51296;SDS011;37380;45.186;9.792;2023-05-07T04:06:51;30.35;;;27.25;;
51296;SDS011;37380;45.186;9.792;2023-05-07T04:09:18;31.80;;;24.75;;
51296;SDS011;37380;45.186;9.792;2023-05-07T04:11:47;31.38;;;28.25;;
51296;SDS011;37380;45.186;9.792;2023-05-07T04:14:21;32.83;;;29.35;;
51296;SDS011;37380;45.186;9.792;2023-05-07T04:17:15;31.98;;;28.85;;
51296;SDS011;37380;45.186;9.792;2023-05-07T04:19:49;33.20;;;29.38;;
51296;SDS011;37380;45.186;9.792;2023-05-07T04:22:43;29.45;;;26.20;;
51296;SDS011;37380;45.186;9.792;2023-05-07T04:25:10;29.65;;;26.77;;
51296;SDS011;37380;45.186;9.792;2023-05-07T04:27:37;30.63;;;26.55;;
51296;SDS011;37380;45.186;9.792;2023-05-07T04:30:04;30.15;;;27.05;;
51296;SDS011;37380;45.186;9.792;2023-05-07T04:32:37;26.45;;;23.80;;
51296;SDS011;37380;45.186;9.792;2023-05-07T04:35:05;19.05;;;17.15;;
51296;SDS011;37380;45.186;9.792;2023-05-07T04:37:41;21.55;;;19.45;;
51296;SDS011;37380;45.186;9.792;2023-05-07T04:40:36;23.65;;;19.30;;
51296;SDS011;37380;45.186;9.792;2023-05-07T04:43:03;18.20;;;16.17;;
51296;SDS011;37380;45.186;9.792;2023-05-07T04:45:38;16.60;;;15.00;;
51296;SDS011;37380;45.186;9.792;2023-05-07T04:48:08;10.88;;;9.95;;
51296;SDS011;37380;45.186;9.792;2023-05-07T04:50:38;14.70;;;10.70;;
51296;SDS011;37380;45.186;9.792;2023-05-07T04:53:06;12.95;;;8.30;;
51296;SDS011;37380;45.186;9.792;2023-05-07T04:55:33;11.65;;;7.30;;
51296;SDS011;37380;45.186;9.792;2023-05-07T04:58:01;6.43;;;5.47;;
51296;SDS011;37380;45.186;9.792;2023-05-07T05:00:31;13.48;;;4.32;;
51296;SDS011;37380;45.186;9.792;2023-05-07T05:03:02;9.60;;;5.68;;
51296;SDS011;37380;45.186;9.792;2023-05-07T05:05:30;5.80;;;3.85;;
51296;SDS011;37380;45.186;9.792;2023-05-07T05:07:58;3.85;;;3.55;;
51296;SDS011;37380;45.186;9.792;2023-05-07T05:10:25;3.45;;;3.15;;
51296;SDS011;37380;45.186;9.792;2023-05-07T05:12:52;27.08;;;4.97;;
51296;SDS011;37380;45.186;9.792;2023-05-07T05:15:28;3.47;;;3.17;;
51296;SDS011;37380;45.186;9.792;2023-05-07T05:18:29;6.78;;;3.63;;
51296;SDS011;37380;45.186;9.792;2023-05-07T05:21:31;8.07;;;4.20;;
51296;SDS011;37380;45.186;9.792;2023-05-07T05:24:25;5.25;;;3.17;;
51296;SDS011;37380;45.186;9.792;2023-05-07T05:26:55;4.50;;;3.53;;
51296;SDS011;37380;45.186;9.792;2023-05-07T05:29:23;3.45;;;3.13;;
51296;SDS011;37380;45.186;9.792;2023-05-07T05:31:50;5.10;;;2.75;;
51296;SDS011;37380;45.186;9.792;2023-05-07T05:34:18;2.92;;;2.42;;
51296;SDS011;37380;45.186;9.792;2023-05-07T05:36:46;4.28;;;2.90;;
51296;SDS011;37380;45.186;9.792;2023-05-07T05:39:21;4.88;;;2.72;;
51296;SDS011;37380;45.186;9.792;2023-05-07T05:42:23;2.80;;;2.55;;
51296;SDS011;37380;45.186;9.792;2023-05-07T05:45:23;4.50;;;2.67;;
51296;SDS011;37380;45.186;9.792;2023-05-07T05:47:50;8.07;;;2.85;;
51296;SDS011;37380;45.186;9.792;2023-05-07T05:50:25;5.38;;;2.25;;
51296;SDS011;37380;45.186;9.792;2023-05-07T05:53:20;4.47;;;2.38;;
51296;SDS011;37380;45.186;9.792;2023-05-07T05:55:47;2.70;;;1.98;;
51296;SDS011;37380;45.186;9.792;2023-05-07T05:58:15;2.08;;;1.98;;
51296;SDS011;37380;45.186;9.792;2023-05-07T06:03:21;9.18;;;2.13;;
51296;SDS011;37380;45.186;9.792;2023-05-07T06:05:49;3.85;;;1.48;;
51296;SDS011;37380;45.186;9.792;2023-05-07T06:08:18;3.67;;;1.80;;
51296;SDS011;37380;45.186;9.792;2023-05-07T06:10:46;4.47;;;2.60;;
51296;SDS011;37380;45.186;9.792;2023-05-07T06:13:14;5.72;;;3.30;;
51296;SDS011;37380;45.186;9.792;2023-05-07T06:15:48;6.20;;;3.83;;
51296;SDS011;37380;45.186;9.792;2023-05-07T06:18:50;5.20;;;4.32;;
51296;SDS011;37380;45.186;9.792;2023-05-07T06:21:52;4.00;;;3.63;;
51296;SDS011;37380;45.186;9.792;2023-05-07T06:24:48;14.25;;;3.50;;
51296;SDS011;37380;45.186;9.792;2023-05-07T06:27:15;5.70;;;3.78;;
51296;SDS011;37380;45.186;9.792;2023-05-07T06:29:43;8.30;;;7.45;;
51296;SDS011;37380;45.186;9.792;2023-05-07T06:32:14;16.15;;;10.35;;
51296;SDS011;37380;45.186;9.792;2023-05-07T06:34:50;12.95;;;11.52;;
51296;SDS011;37380;45.186;9.792;2023-05-07T06:37:52;11.23;;;10.18;;
51296;SDS011;37380;45.186;9.792;2023-05-07T06:40:48;15.18;;;11.57;;
51296;SDS011;37380;45.186;9.792;2023-05-07T06:43:16;12.45;;;11.25;;
51296;SDS011;37380;45.186;9.792;2023-05-07T06:45:53;12.63;;;11.32;;
51296;SDS011;37380;45.186;9.792;2023-05-07T06:48:20;12.95;;;11.00;;
51296;SDS011;37380;45.186;9.792;2023-05-07T06:50:54;11.20;;;10.25;;
51296;SDS011;37380;45.186;9.792;2023-05-07T06:53:23;12.35;;;9.82;;
51296;SDS011;37380;45.186;9.792;2023-05-07T06:55:50;12.10;;;10.90;;
51296;SDS011;37380;45.186;9.792;2023-05-07T06:58:19;14.15;;;10.35;;
51296;SDS011;37380;45.186;9.792;2023-05-07T07:00:47;9.18;;;8.27;;
51296;SDS011;37380;45.186;9.792;2023-05-07T07:03:14;11.35;;;8.70;;
51296;SDS011;37380;45.186;9.792;2023-05-07T07:05:42;7.88;;;7.10;;
51296;SDS011;37380;45.186;9.792;2023-05-07T07:08:09;8.32;;;6.80;;
51296;SDS011;37380;45.186;9.792;2023-05-07T07:10:37;8.98;;;6.90;;
51296;SDS011;37380;45.186;9.792;2023-05-07T07:13:04;8.18;;;7.28;;
51296;SDS011;37380;45.186;9.792;2023-05-07T07:15:31;8.82;;;7.90;;
51296;SDS011;37380;45.186;9.792;2023-05-07T07:18:05;7.25;;;6.47;;
51296;SDS011;37380;45.186;9.792;2023-05-07T07:20:56;7.57;;;6.13;;
51296;SDS011;37380;45.186;9.792;2023-05-07T07:23:23;7.20;;;4.88;;
51296;SDS011;37380;45.186;9.792;2023-05-07T07:25:51;11.85;;;5.68;;
51296;SDS011;37380;45.186;9.792;2023-05-07T07:28:20;6.07;;;5.47;;
51296;SDS011;37380;45.186;9.792;2023-05-07T07:30:48;9.25;;;8.23;;
51296;SDS011;37380;45.186;9.792;2023-05-07T07:33:16;14.23;;;9.45;;
51296;SDS011;37380;45.186;9.792;2023-05-07T07:35:44;10.02;;;9.05;;
51296;SDS011;37380;45.186;9.792;2023-05-07T07:38:18;10.43;;;9.45;;
51296;SDS011;37380;45.186;9.792;2023-05-07T07:41:19;8.57;;;7.88;;
51296;SDS011;37380;45.186;9.792;2023-05-07T07:44:20;17.23;;;8.27;;
51296;SDS011;37380;45.186;9.792;2023-05-07T07:47:16;14.52;;;8.18;;
51296;SDS011;37380;45.186;9.792;2023-05-07T07:49:45;8.65;;;6.38;;
51296;SDS011;37380;45.186;9.792;2023-05-07T07:52:12;9.88;;;5.18;;
51296;SDS011;37380;45.186;9.792;2023-05-07T07:54:41;8.10;;;4.38;;
51296;SDS011;37380;45.186;9.792;2023-05-07T07:57:09;4.40;;;3.72;;
51296;SDS011;37380;45.186;9.792;2023-05-07T07:59:36;4.32;;;3.90;;
51296;SDS011;37380;45.186;9.792;2023-05-07T08:02:04;8.95;;;4.70;;
51296;SDS011;37380;45.186;9.792;2023-05-07T08:04:33;4.13;;;3.83;;
51296;SDS011;37380;45.186;9.792;2023-05-07T08:07:03;7.85;;;3.55;;
51296;SDS011;37380;45.186;9.792;2023-05-07T08:09:34;6.78;;;3.53;;
51296;SDS011;37380;45.186;9.792;2023-05-07T08:12:03;4.85;;;4.18;;
51296;SDS011;37380;45.186;9.792;2023-05-07T08:14:39;5.82;;;5.05;;
51296;SDS011;37380;45.186;9.792;2023-05-07T08:17:33;5.28;;;4.78;;
51296;SDS011;37380;45.186;9.792;2023-05-07T08:20:07;10.93;;;5.07;;
51296;SDS011;37380;45.186;9.792;2023-05-07T08:23:01;6.63;;;4.55;;
51296;SDS011;37380;45.186;9.792;2023-05-07T08:25:30;6.35;;;5.00;;
51296;SDS011;37380;45.186;9.792;2023-05-07T08:28:00;4.68;;;4.28;;
51296;SDS011;37380;45.186;9.792;2023-05-07T08:30:27;7.82;;;4.55;;
51296;SDS011;37380;45.186;9.792;2023-05-07T08:33:02;5.00;;;3.10;;
51296;SDS011;37380;45.186;9.792;2023-05-07T08:36:03;10.75;;;3.67;;
51296;SDS011;37380;45.186;9.792;2023-05-07T08:38:46;7.13;;;2.67;;
51296;SDS011;37380;45.186;9.792;2023-05-07T08:41:40;4.90;;;3.55;;
51296;SDS011;37380;45.186;9.792;2023-05-07T08:44:07;2.75;;;2.33;;
51296;SDS011;37380;45.186;9.792;2023-05-07T08:46:41;6.60;;;2.67;;
51296;SDS011;37380;45.186;9.792;2023-05-07T08:49:10;6.90;;;2.38;;
51296;SDS011;37380;45.186;9.792;2023-05-07T08:51:37;8.48;;;3.20;;
51296;SDS011;37380;45.186;9.792;2023-05-07T08:54:04;2.35;;;2.08;;
51296;SDS011;37380;45.186;9.792;2023-05-07T08:56:32;3.85;;;2.05;;
51296;SDS011;37380;45.186;9.792;2023-05-07T08:58:59;2.30;;;2.10;;
51296;SDS011;37380;45.186;9.792;2023-05-07T09:01:28;16.20;;;2.88;;
51296;SDS011;37380;45.186;9.792;2023-05-07T09:03:57;4.30;;;2.40;;
51296;SDS011;37380;45.186;9.792;2023-05-07T09:06:26;2.20;;;2.00;;
51296;SDS011;37380;45.186;9.792;2023-05-07T09:08:54;1.85;;;1.75;;
51296;SDS011;37380;45.186;9.792;2023-05-07T09:11:25;4.78;;;2.28;;
51296;SDS011;37380;45.186;9.792;2023-05-07T09:13:54;2.97;;;2.35;;
51296;SDS011;37380;45.186;9.792;2023-05-07T09:16:23;2.30;;;2.08;;
51296;SDS011;37380;45.186;9.792;2023-05-07T09:19:00;5.35;;;2.72;;
51296;SDS011;37380;45.186;9.792;2023-05-07T09:22:01;4.45;;;2.47;;
51296;SDS011;37380;45.186;9.792;2023-05-07T09:25:05;3.58;;;2.10;;
51296;SDS011;37380;45.186;9.792;2023-05-07T09:27:34;3.40;;;2.10;;
51296;SDS011;37380;45.186;9.792;2023-05-07T09:30:03;4.20;;;2.90;;
51296;SDS011;37380;45.186;9.792;2023-05-07T09:32:36;2.30;;;2.10;;
51296;SDS011;37380;45.186;9.792;2023-05-07T09:35:15;1.92;;;1.83;;
51296;SDS011;37380;45.186;9.792;2023-05-07T09:37:57;1.88;;;1.77;;
51296;SDS011;37380;45.186;9.792;2023-05-07T09:40:45;8.13;;;2.25;;
51296;SDS011;37380;45.186;9.792;2023-05-07T09:43:14;2.72;;;2.53;;
51296;SDS011;37380;45.186;9.792;2023-05-07T09:45:47;8.10;;;1.80;;
51296;SDS011;37380;45.186;9.792;2023-05-07T09:48:21;4.15;;;1.92;;
51296;SDS011;37380;45.186;9.792;2023-05-07T09:50:51;2.00;;;1.48;;
51296;SDS011;37380;45.186;9.792;2023-05-07T09:53:25;1.17;;;1.02;;
51296;SDS011;37380;45.186;9.792;2023-05-07T09:55:54;3.25;;;1.40;;
51296;SDS011;37380;45.186;9.792;2023-05-07T09:58:23;5.13;;;2.00;;
51296;SDS011;37380;45.186;9.792;2023-05-07T10:00:53;8.13;;;1.90;;
51296;SDS011;37380;45.186;9.792;2023-05-07T10:03:22;2.55;;;1.60;;
51296;SDS011;37380;45.186;9.792;2023-05-07T10:05:58;2.08;;;1.92;;
51296;SDS011;37380;45.186;9.792;2023-05-07T10:08:26;2.25;;;1.80;;
51296;SDS011;37380;45.186;9.792;2023-05-07T10:10:56;1.85;;;1.73;;
51296;SDS011;37380;45.186;9.792;2023-05-07T10:13:26;1.73;;;1.63;;
51296;SDS011;37380;45.186;9.792;2023-05-07T10:15:56;2.00;;;1.90;;
51296;SDS011;37380;45.186;9.792;2023-05-07T10:18:34;6.20;;;2.65;;
51296;SDS011;37380;45.186;9.792;2023-05-07T10:21:26;3.97;;;1.88;;
51296;SDS011;37380;45.186;9.792;2023-05-07T10:23:59;1.60;;;1.50;;
51296;SDS011;37380;45.186;9.792;2023-05-07T10:26:33;2.03;;;1.48;;
51296;SDS011;37380;45.186;9.792;2023-05-07T10:29:07;4.53;;;1.45;;
51296;SDS011;37380;45.186;9.792;2023-05-07T10:34:28;1.52;;;1.10;;
51296;SDS011;37380;45.186;9.792;2023-05-07T10:37:06;2.05;;;0.82;;
51296;SDS011;37380;45.186;9.792;2023-05-07T10:40:08;0.70;;;0.70;;
51296;SDS011;37380;45.186;9.792;2023-05-07T10:43:11;3.13;;;0.95;;
51296;SDS011;37380;45.186;9.792;2023-05-07T10:58:22;2.05;;;1.13;;
51296;SDS011;37380;45.186;9.792;2023-05-07T11:01:04;3.95;;;1.67;;
51296;SDS011;37380;45.186;9.792;2023-05-07T11:03:36;2.30;;;1.75;;
51296;SDS011;37380;45.186;9.792;2023-05-07T11:09:55;1.40;;;1.02;;
51296;SDS011;37380;45.186;9.792;2023-05-07T11:12:47;1.50;;;1.40;;
51296;SDS011;37380;45.186;9.792;2023-05-07T11:15:54;2.83;;;1.90;;
51296;SDS011;37380;45.186;9.792;2023-05-07T11:18:48;6.90;;;3.95;;
51296;SDS011;37380;45.186;9.792;2023-05-07T11:21:50;3.97;;;3.58;;
51296;SDS011;37380;45.186;9.792;2023-05-07T11:24:27;5.00;;;3.80;;
51296;SDS011;37380;45.186;9.792;2023-05-07T11:26:58;3.70;;;3.40;;
51296;SDS011;37380;45.186;9.792;2023-05-07T11:29:28;3.03;;;2.83;;
51296;SDS011;37380;45.186;9.792;2023-05-07T11:32:13;6.47;;;2.88;;
51296;SDS011;37380;45.186;9.792;2023-05-07T11:34:53;3.45;;;3.13;;
51296;SDS011;37380;45.186;9.792;2023-05-07T11:37:28;3.50;;;3.13;;
51296;SDS011;37380;45.186;9.792;2023-05-07T11:40:22;4.55;;;3.45;;
51296;SDS011;37380;45.186;9.792;2023-05-07T11:42:49;4.00;;;3.63;;
51296;SDS011;37380;45.186;9.792;2023-05-07T11:45:22;2.90;;;2.60;;
51296;SDS011;37380;45.186;9.792;2023-05-07T11:47:51;9.77;;;3.17;;
51296;SDS011;37380;45.186;9.792;2023-05-07T11:50:19;6.03;;;2.53;;
51296;SDS011;37380;45.186;9.792;2023-05-07T11:52:52;4.78;;;2.47;;
51296;SDS011;37380;45.186;9.792;2023-05-07T11:55:19;1.77;;;1.67;;
51296;SDS011;37380;45.186;9.792;2023-05-07T11:57:46;2.63;;;2.42;;
51296;SDS011;37380;45.186;9.792;2023-05-07T12:00:15;2.53;;;2.08;;
51296;SDS011;37380;45.186;9.792;2023-05-07T12:02:43;3.88;;;2.58;;
51296;SDS011;37380;45.186;9.792;2023-05-07T12:05:12;4.75;;;2.33;;
51296;SDS011;37380;45.186;9.792;2023-05-07T12:07:39;6.72;;;2.72;;
51296;SDS011;37380;45.186;9.792;2023-05-07T12:10:06;2.90;;;2.70;;
51296;SDS011;37380;45.186;9.792;2023-05-07T12:12:38;2.92;;;2.40;;
51296;SDS011;37380;45.186;9.792;2023-05-07T12:15:06;2.97;;;2.33;;
51296;SDS011;37380;45.186;9.792;2023-05-07T12:17:34;2.90;;;2.70;;
51296;SDS011;37380;45.186;9.792;2023-05-07T12:20:08;5.18;;;2.50;;
51296;SDS011;37380;45.186;9.792;2023-05-07T12:23:10;6.22;;;3.50;;
51296;SDS011;37380;45.186;9.792;2023-05-07T12:25:57;2.75;;;2.55;;
51296;SDS011;37380;45.186;9.792;2023-05-07T12:28:27;9.77;;;2.75;;
51296;SDS011;37380;45.186;9.792;2023-05-07T12:30:54;3.55;;;1.77;;
51296;SDS011;37380;45.186;9.792;2023-05-07T12:33:25;4.50;;;2.97;;
51296;SDS011;37380;45.186;9.792;2023-05-07T12:35:54;7.97;;;2.38;;
51296;SDS011;37380;45.186;9.792;2023-05-07T12:38:32;4.68;;;2.00;;
51296;SDS011;37380;45.186;9.792;2023-05-07T12:41:29;2.10;;;2.00;;
51296;SDS011;37380;45.186;9.792;2023-05-07T12:43:56;5.22;;;1.90;;
51296;SDS011;37380;45.186;9.792;2023-05-07T12:46:30;2.45;;;1.80;;
51296;SDS011;37380;45.186;9.792;2023-05-07T12:49:30;2.78;;;2.45;;
51296;SDS011;37380;45.186;9.792;2023-05-07T12:51:57;3.20;;;2.88;;
51296;SDS011;37380;45.186;9.792;2023-05-07T12:54:28;2.80;;;2.60;;
51296;SDS011;37380;45.186;9.792;2023-05-07T12:59:37;2.03;;;1.83;;
51296;SDS011;37380;45.186;9.792;2023-05-07T13:02:06;1.90;;;1.80;;
51296;SDS011;37380;45.186;9.792;2023-05-07T13:04:43;2.35;;;2.08;;
51296;SDS011;37380;45.186;9.792;2023-05-07T13:07:52;3.53;;;3.00;;
51296;SDS011;37380;45.186;9.792;2023-05-07T13:10:49;5.78;;;2.97;;
51296;SDS011;37380;45.186;9.792;2023-05-07T13:13:16;2.88;;;2.60;;
51296;SDS011;37380;45.186;9.792;2023-05-07T13:15:43;2.88;;;2.42;;
51296;SDS011;37380;45.186;9.792;2023-05-07T13:18:16;3.22;;;2.20;;
51296;SDS011;37380;45.186;9.792;2023-05-07T13:21:10;2.85;;;2.50;;
51296;SDS011;37380;45.186;9.792;2023-05-07T13:23:46;2.38;;;2.17;;
51296;SDS011;37380;45.186;9.792;2023-05-07T13:26:47;5.53;;;2.10;;
51296;SDS011;37380;45.186;9.792;2023-05-07T13:29:48;2.55;;;2.35;;
51296;SDS011;37380;45.186;9.792;2023-05-07T13:32:42;2.78;;;2.55;;
51296;SDS011;37380;45.186;9.792;2023-05-07T13:35:09;3.50;;;2.40;;
51296;SDS011;37380;45.186;9.792;2023-05-07T13:37:37;4.43;;;2.40;;
51296;SDS011;37380;45.186;9.792;2023-05-07T13:40:04;2.28;;;2.08;;
51296;SDS011;37380;45.186;9.792;2023-05-07T13:42:32;8.60;;;3.08;;
51296;SDS011;37380;45.186;9.792;2023-05-07T13:44:59;6.72;;;2.13;;
51296;SDS011;37380;45.186;9.792;2023-05-07T13:47:26;3.58;;;2.05;;
51296;SDS011;37380;45.186;9.792;2023-05-07T13:49:53;2.22;;;2.03;;
51296;SDS011;37380;45.186;9.792;2023-05-07T13:52:20;1.92;;;1.80;;
51296;SDS011;37380;45.186;9.792;2023-05-07T13:54:47;2.03;;;1.92;;
51296;SDS011;37380;45.186;9.792;2023-05-07T13:57:14;2.53;;;2.33;;
51296;SDS011;37380;45.186;9.792;2023-05-07T13:59:42;2.80;;;1.65;;
51296;SDS011;37380;45.186;9.792;2023-05-07T14:02:09;7.03;;;2.03;;
51296;SDS011;37380;45.186;9.792;2023-05-07T14:04:37;3.65;;;1.65;;
51296;SDS011;37380;45.186;9.792;2023-05-07T14:07:04;3.15;;;2.15;;
51296;SDS011;37380;45.186;9.792;2023-05-07T14:09:31;3.38;;;2.35;;
51296;SDS011;37380;45.186;9.792;2023-05-07T14:11:58;2.47;;;2.03;;
51296;SDS011;37380;45.186;9.792;2023-05-07T14:14:26;9.30;;;2.13;;
51296;SDS011;37380;45.186;9.792;2023-05-07T14:16:52;3.08;;;1.70;;
51296;SDS011;37380;45.186;9.792;2023-05-07T14:19:26;11.05;;;1.98;;
51296;SDS011;37380;45.186;9.792;2023-05-07T14:22:27;3.25;;;1.45;;
51296;SDS011;37380;45.186;9.792;2023-05-07T14:25:21;1.60;;;1.50;;
51296;SDS011;37380;45.186;9.792;2023-05-07T14:27:50;1.98;;;1.60;;
51296;SDS011;37380;45.186;9.792;2023-05-07T14:30:17;5.38;;;2.13;;
51296;SDS011;37380;45.186;9.792;2023-05-07T14:33:05;2.80;;;1.98;;
51296;SDS011;37380;45.186;9.792;2023-05-07T14:36:06;2.72;;;2.40;;
51296;SDS011;37380;45.186;9.792;2023-05-07T14:39:00;2.47;;;2.25;;
51296;SDS011;37380;45.186;9.792;2023-05-07T14:41:28;5.18;;;1.88;;
51296;SDS011;37380;45.186;9.792;2023-05-07T14:43:55;3.28;;;2.22;;
51296;SDS011;37380;45.186;9.792;2023-05-07T14:46:22;4.35;;;2.10;;
51296;SDS011;37380;45.186;9.792;2023-05-07T14:48:50;2.47;;;2.13;;
51296;SDS011;37380;45.186;9.792;2023-05-07T14:51:17;2.08;;;1.45;;
51296;SDS011;37380;45.186;9.792;2023-05-07T14:53:44;1.75;;;1.65;;
51296;SDS011;37380;45.186;9.792;2023-05-07T14:56:11;1.80;;;1.70;;
51296;SDS011;37380;45.186;9.792;2023-05-07T14:58:38;3.33;;;2.15;;
51296;SDS011;37380;45.186;9.792;2023-05-07T15:01:06;2.60;;;1.98;;
51296;SDS011;37380;45.186;9.792;2023-05-07T15:03:39;2.90;;;1.60;;
51296;SDS011;37380;45.186;9.792;2023-05-07T15:06:36;2.95;;;1.92;;
51296;SDS011;37380;45.186;9.792;2023-05-07T15:09:03;2.45;;;2.13;;
51296;SDS011;37380;45.186;9.792;2023-05-07T15:11:30;7.78;;;2.85;;
51296;SDS011;37380;45.186;9.792;2023-05-07T15:13:58;3.20;;;2.25;;
51296;SDS011;37380;45.186;9.792;2023-05-07T15:16:24;2.20;;;2.00;;
51296;SDS011;37380;45.186;9.792;2023-05-07T15:18:58;7.45;;;1.98;;
51296;SDS011;37380;45.186;9.792;2023-05-07T15:21:59;3.33;;;2.65;;
51296;SDS011;37380;45.186;9.792;2023-05-07T15:25:00;2.08;;;1.88;;
51296;SDS011;37380;45.186;9.792;2023-05-07T15:27:54;3.88;;;1.95;;
51296;SDS011;37380;45.186;9.792;2023-05-07T15:30:28;3.30;;;2.42;;
51296;SDS011;37380;45.186;9.792;2023-05-07T15:33:23;8.80;;;2.60;;
51296;SDS011;37380;45.186;9.792;2023-05-07T15:35:50;9.70;;;2.20;;
51296;SDS011;37380;45.186;9.792;2023-05-07T15:38:25;2.28;;;2.03;;
51296;SDS011;37380;45.186;9.792;2023-05-07T15:41:26;3.65;;;2.17;;
51296;SDS011;37380;45.186;9.792;2023-05-07T15:44:27;2.80;;;2.13;;
51296;SDS011;37380;45.186;9.792;2023-05-07T15:47:21;6.32;;;2.03;;
51296;SDS011;37380;45.186;9.792;2023-05-07T15:49:48;6.40;;;2.58;;
51296;SDS011;37380;45.186;9.792;2023-05-07T15:52:15;2.38;;;1.77;;